Terminal Aerodrome Forecast
Issued by NWS Brownsville, TX

Home | Current Version | Previous Version | Text Only | Print | Product List | Glossary On
Versions: 1 2 3 4 5 6 7 8 9 10 11 12 13 14 15 16
000
FTUS44 KBRO 261741
TAFHRL
TAF
KHRL 261741Z 2618/2718 15019G28KT P6SM SCT035 BKN050
      TEMPO 2622/2701 SCT050
     FM270100 16011KT P6SM SCT035
      TEMPO 2701/2705 BKN035
     FM270600 16009KT P6SM FEW025
      TEMPO 2709/2713 5SM BR BKN025
     FM271400 16013KT P6SM BKN035=

USA.gov is the U.S. government's official web portal to all federal, state and local government web resources and services.